createdAt,value
2023-09-16T00:01:52.408Z,101463.00
2023-09-16T00:04:19.635Z,101461.19
2023-09-16T00:06:47.599Z,101460.28
2023-09-16T00:09:14.595Z,101475.16
2023-09-16T00:11:41.592Z,101466.25
2023-09-16T00:14:08.516Z,101457.34
2023-09-16T00:16:35.495Z,101454.03
2023-09-16T00:19:04.346Z,101460.38
2023-09-16T00:21:31.432Z,101446.34
2023-09-16T00:24:01.477Z,101454.22
2023-09-16T00:26:28.476Z,101456.94
2023-09-16T00:28:55.811Z,101443.78
2023-09-16T00:31:22.930Z,101454.31
2023-09-16T00:33:50.730Z,101447.44
2023-09-16T00:36:17.822Z,101445.97
2023-09-16T00:38:45.058Z,101442.88
2023-09-16T00:41:13.750Z,101437.53
2023-09-16T00:43:40.996Z,101438.22
2023-09-16T00:46:07.959Z,101442.47
2023-09-16T00:48:36.585Z,101445.88
2023-09-16T00:51:04.381Z,101445.09
2023-09-16T00:53:31.541Z,101449.53
2023-09-16T00:55:58.568Z,101438.13
2023-09-16T00:58:25.681Z,101440.84
2023-09-16T01:00:53.898Z,101435.03
2023-09-16T01:03:21.092Z,101443.38
2023-09-16T01:05:48.920Z,101437.47
2023-09-16T01:08:17.568Z,101436.91
2023-09-16T01:10:44.775Z,101443.41
2023-09-16T01:13:12.135Z,101438.44
2023-09-16T01:15:47.869Z,101445.41
2023-09-16T01:18:22.774Z,101441.78
2023-09-16T01:20:51.317Z,101443.50
2023-09-16T01:23:21.170Z,101442.00
2023-09-16T01:25:48.313Z,101444.84
2023-09-16T01:28:15.659Z,101443.16
2023-09-16T01:30:48.377Z,101434.25
2023-09-16T01:33:28.559Z,101435.09
2023-09-16T01:36:06.642Z,101427.16
2023-09-16T01:38:38.528Z,101419.25
2023-09-16T01:41:06.251Z,101418.34
2023-09-16T01:43:33.588Z,101421.03
2023-09-16T01:46:00.776Z,101419.47
2023-09-16T01:48:44.484Z,101418.97
2023-09-16T01:51:14.496Z,101415.66
2023-09-16T01:53:43.129Z,101417.34
2023-09-16T01:56:10.088Z,101414.72
2023-09-16T01:58:37.121Z,101423.53
2023-09-16T02:01:12.462Z,101420.97
2023-09-16T02:03:39.528Z,101418.44
2023-09-16T02:06:09.743Z,101408.19
2023-09-16T02:08:38.348Z,101421.66
2023-09-16T02:11:05.838Z,101423.56
2023-09-16T02:13:33.992Z,101423.78
2023-09-16T02:16:01.257Z,101434.38
2023-09-16T02:18:29.025Z,101427.47
2023-09-16T02:20:56.011Z,101433.81
2023-09-16T02:23:23.484Z,101420.88
2023-09-16T02:25:50.469Z,101419.38
2023-09-16T02:28:17.375Z,101423.63
2023-09-16T02:30:44.513Z,101424.47
2023-09-16T02:33:11.627Z,101419.97
2023-09-16T02:35:40.715Z,101423.34
2023-09-16T02:38:07.879Z,101425.00
2023-09-16T02:40:35.253Z,101419.75
2023-09-16T02:43:02.325Z,101426.72
2023-09-16T02:45:29.364Z,101415.34
2023-09-16T02:47:56.443Z,101416.13
2023-09-16T02:50:23.380Z,101421.38
2023-09-16T02:52:50.414Z,101422.16
2023-09-16T02:55:17.555Z,101418.75
2023-09-16T02:57:44.743Z,101415.25
2023-09-16T03:00:12.255Z,101417.84
2023-09-16T03:02:39.255Z,101406.44
2023-09-16T03:05:06.537Z,101412.50
2023-09-16T03:07:33.474Z,101406.44
2023-09-16T03:10:00.622Z,101406.63
2023-09-16T03:12:27.699Z,101406.63
2023-09-16T03:14:54.684Z,101404.81
2023-09-16T03:17:21.706Z,101401.50
2023-09-16T03:19:48.735Z,101406.84
2023-09-16T03:22:15.688Z,101405.13
2023-09-16T03:24:43.871Z,101407.00
2023-09-16T03:27:11.592Z,101402.97
2023-09-16T03:29:38.652Z,101397.06
2023-09-16T03:32:05.766Z,101391.88
2023-09-16T03:34:34.146Z,101392.00
2023-09-16T03:37:01.191Z,101389.25
2023-09-16T03:39:28.556Z,101386.63
2023-09-16T03:41:56.187Z,101383.00
2023-09-16T03:44:23.949Z,101378.63
2023-09-16T03:46:51.030Z,101381.16
2023-09-16T03:49:18.311Z,101380.31
2023-09-16T03:51:47.119Z,101382.25
2023-09-16T03:54:14.588Z,101381.47
2023-09-16T03:56:43.380Z,101379.81
2023-09-16T03:59:13.099Z,101375.41
2023-09-16T04:01:40.109Z,101379.88
2023-09-16T04:04:08.946Z,101376.69
2023-09-16T04:06:36.013Z,101382.94
2023-09-16T04:09:03.059Z,101375.88
2023-09-16T04:11:30.033Z,101373.25
2023-09-16T04:13:57.261Z,101372.34
2023-09-16T04:16:26.824Z,101377.59
2023-09-16T04:18:54.836Z,101369.72
2023-09-16T04:21:21.980Z,101374.06
2023-09-16T04:23:49.254Z,101377.69
2023-09-16T04:26:17.426Z,101370.72
2023-09-16T04:28:47.148Z,101373.41
2023-09-16T04:31:14.320Z,101372.69
2023-09-16T04:33:42.153Z,101366.59
2023-09-16T04:36:10.858Z,101375.31
2023-09-16T04:38:38.943Z,101377.00
2023-09-16T04:41:06.874Z,101381.28
2023-09-16T04:43:34.322Z,101371.00
2023-09-16T04:46:02.536Z,101372.06
2023-09-16T04:48:37.197Z,101369.56
2023-09-16T04:51:05.017Z,101365.28
2023-09-16T04:53:33.466Z,101372.38
2023-09-16T04:56:01.950Z,101374.22
2023-09-16T04:58:32.530Z,101378.88
2023-09-16T05:01:01.357Z,101385.00
2023-09-16T05:03:29.191Z,101375.28
2023-09-16T05:05:56.364Z,101380.53
2023-09-16T05:08:29.307Z,101376.13
2023-09-16T05:10:57.535Z,101372.50
2023-09-16T05:13:24.872Z,101367.25
2023-09-16T05:15:52.985Z,101364.63
2023-09-16T05:18:20.019Z,101370.03
2023-09-16T05:20:50.914Z,101372.78
2023-09-16T05:23:18.284Z,101371.00
2023-09-16T05:25:47.540Z,101367.66
2023-09-16T05:28:18.654Z,101383.28
2023-09-16T05:30:46.140Z,101374.41
2023-09-16T05:33:15.516Z,101380.38
2023-09-16T05:35:43.499Z,101381.16
2023-09-16T05:38:11.001Z,101376.78
2023-09-16T05:40:38.500Z,101378.75
2023-09-16T05:43:06.312Z,101377.91
2023-09-16T05:45:33.377Z,101384.78
2023-09-16T05:48:04.656Z,101382.16
2023-09-16T05:50:36.659Z,101383.75
2023-09-16T05:53:07.086Z,101391.53
2023-09-16T05:55:44.453Z,101389.72
2023-09-16T05:58:13.456Z,101383.59
2023-09-16T06:00:41.494Z,101387.09
2023-09-16T06:03:08.801Z,101390.50
2023-09-16T06:05:35.905Z,101396.47
2023-09-16T06:08:03.642Z,101392.94
2023-09-16T06:10:30.712Z,101393.69
2023-09-16T06:12:57.785Z,101396.25
2023-09-16T06:15:25.002Z,101405.97
2023-09-16T06:17:51.945Z,101397.25
2023-09-16T06:20:18.963Z,101404.06
2023-09-16T06:22:46.051Z,101406.56
2023-09-16T06:25:15.896Z,101399.50
2023-09-16T06:27:42.981Z,101409.97
2023-09-16T06:30:10.976Z,101408.19
2023-09-16T06:32:39.033Z,101415.28
2023-09-16T06:35:06.528Z,101405.69
2023-09-16T06:37:33.530Z,101413.44
2023-09-16T06:40:01.406Z,101407.19
2023-09-16T06:42:28.638Z,101409.75
2023-09-16T06:44:56.552Z,101401.75
2023-09-16T06:47:27.906Z,101403.31
2023-09-16T06:49:56.185Z,101409.22
2023-09-16T06:52:23.723Z,101402.97
2023-09-16T06:54:51.211Z,101404.53
2023-09-16T06:57:18.202Z,101407.88
2023-09-16T06:59:48.916Z,101406.84
2023-09-16T07:02:16.945Z,101408.38
2023-09-16T07:04:44.128Z,101411.69
2023-09-16T07:07:11.145Z,101407.19
2023-09-16T07:09:38.316Z,101413.97
2023-09-16T07:12:07.483Z,101400.63
2023-09-16T07:14:38.804Z,101402.16
2023-09-16T07:17:06.395Z,101410.69
2023-09-16T07:19:35.384Z,101407.91
2023-09-16T07:22:02.649Z,101408.69
2023-09-16T07:24:30.119Z,101410.34
2023-09-16T07:26:57.740Z,101416.28
2023-09-16T07:29:24.805Z,101412.56
2023-09-16T07:31:51.962Z,101412.28
2023-09-16T07:34:20.696Z,101412.78
2023-09-16T07:36:47.894Z,101405.84
2023-09-16T07:39:15.069Z,101408.19
2023-09-16T07:41:43.163Z,101406.88
2023-09-16T07:44:10.288Z,101411.94
2023-09-16T07:46:37.504Z,101411.75
2023-09-16T07:49:04.598Z,101422.06
2023-09-16T07:51:31.731Z,101427.69
2023-09-16T07:53:58.700Z,101417.06
2023-09-16T07:56:25.836Z,101421.19
2023-09-16T07:58:52.963Z,101422.38
2023-09-16T08:01:20.147Z,101427.13
2023-09-16T08:03:47.346Z,101431.00
2023-09-16T08:06:14.512Z,101425.84
2023-09-16T08:08:41.526Z,101429.91
2023-09-16T08:11:08.619Z,101433.78
2023-09-16T08:13:35.683Z,101429.75
2023-09-16T08:16:02.851Z,101433.38
2023-09-16T08:18:29.908Z,101439.88
2023-09-16T08:20:57.101Z,101433.41
2023-09-16T08:23:24.094Z,101450.88
2023-09-16T08:25:51.090Z,101447.31
2023-09-16T08:28:18.161Z,101452.59
2023-09-16T08:30:45.179Z,101450.72
2023-09-16T08:33:12.555Z,101452.81
2023-09-16T08:35:39.573Z,101441.50
2023-09-16T08:38:08.638Z,101445.09
2023-09-16T08:40:35.741Z,101439.53
2023-09-16T08:43:18.925Z,101439.81
2023-09-16T08:45:55.395Z,101438.28
2023-09-16T08:48:26.768Z,101444.03
2023-09-16T08:50:55.462Z,101441.91
2023-09-16T08:53:25.972Z,101436.94
2023-09-16T08:55:53.718Z,101445.16
2023-09-16T08:58:21.439Z,101450.97
2023-09-16T09:00:48.592Z,101452.81
2023-09-16T09:03:15.678Z,101442.06
2023-09-16T09:05:44.750Z,101445.63
2023-09-16T09:08:13.091Z,101447.44
2023-09-16T09:10:43.750Z,101438.28
2023-09-16T09:13:14.054Z,101448.66
2023-09-16T09:15:42.638Z,101454.13
2023-09-16T09:18:13.094Z,101447.63
2023-09-16T09:20:40.191Z,101448.63
2023-09-16T09:23:11.407Z,101457.00
2023-09-16T09:25:43.056Z,101458.81
2023-09-16T09:28:10.526Z,101467.19
2023-09-16T09:30:40.676Z,101460.84
2023-09-16T09:33:15.373Z,101459.63
2023-09-16T09:35:43.165Z,101460.88
2023-09-16T09:38:10.128Z,101459.75
2023-09-16T09:40:37.185Z,101460.44
2023-09-16T09:43:04.992Z,101461.28
2023-09-16T09:45:38.081Z,101465.75
2023-09-16T09:48:05.475Z,101463.50
2023-09-16T09:50:33.186Z,101465.16
2023-09-16T09:53:02.381Z,101460.00
2023-09-16T09:55:31.102Z,101468.03
2023-09-16T09:57:58.420Z,101465.72
2023-09-16T10:00:25.590Z,101471.06
2023-09-16T10:05:36.717Z,101463.25
2023-09-16T10:08:04.019Z,101462.34
2023-09-16T10:10:33.050Z,101456.75
2023-09-16T10:13:00.156Z,101461.03
2023-09-16T10:15:28.943Z,101466.31
2023-09-16T10:17:57.872Z,101454.97
2023-09-16T10:20:25.196Z,101457.41
2023-09-16T10:22:53.842Z,101457.66
2023-09-16T10:25:21.135Z,101458.97
2023-09-16T10:28:05.162Z,101466.00
2023-09-16T10:30:34.383Z,101463.97
2023-09-16T10:33:03.518Z,101462.34
2023-09-16T10:35:31.217Z,101464.94
2023-09-16T10:38:01.227Z,101464.81
2023-09-16T10:40:28.705Z,101458.66
2023-09-16T10:42:57.562Z,101463.63
2023-09-16T10:45:27.072Z,101457.44
2023-09-16T10:47:55.591Z,101453.09
2023-09-16T10:50:30.423Z,101449.97
2023-09-16T10:53:12.205Z,101457.22
2023-09-16T10:55:52.884Z,101454.06
2023-09-16T10:58:33.476Z,101446.72
2023-09-16T11:01:02.377Z,101440.53
2023-09-16T11:03:33.651Z,101443.78
2023-09-16T11:06:02.922Z,101442.22
2023-09-16T11:08:30.224Z,101439.34
2023-09-16T11:10:57.792Z,101435.09
2023-09-16T11:13:27.955Z,101429.66
2023-09-16T11:15:59.227Z,101428.94
2023-09-16T11:18:26.545Z,101431.72
2023-09-16T11:20:55.075Z,101429.31
2023-09-16T11:23:23.166Z,101424.09
2023-09-16T11:25:50.263Z,101429.53
2023-09-16T11:28:20.695Z,101417.53
2023-09-16T11:30:59.935Z,101416.81
2023-09-16T11:33:27.187Z,101419.81
2023-09-16T11:36:23.751Z,101410.69
2023-09-16T11:39:12.960Z,101416.59
2023-09-16T11:41:40.090Z,101408.03
2023-09-16T11:44:08.856Z,101402.19
2023-09-16T11:46:36.322Z,101411.38
2023-09-16T11:49:06.887Z,101416.94
2023-09-16T11:51:35.773Z,101406.66
2023-09-16T11:54:04.031Z,101413.19
2023-09-16T11:56:32.707Z,101401.72
2023-09-16T11:59:00.120Z,101403.03
2023-09-16T12:01:39.352Z,101405.22
2023-09-16T12:04:07.860Z,101398.94
2023-09-16T12:06:37.002Z,101402.53
2023-09-16T12:09:06.633Z,101393.84
2023-09-16T12:11:35.042Z,101389.50
2023-09-16T12:14:04.570Z,101381.50
2023-09-16T12:16:32.047Z,101387.56
2023-09-16T12:18:59.131Z,101388.28
2023-09-16T12:21:26.377Z,101381.03
2023-09-16T12:23:53.666Z,101376.47
2023-09-16T12:26:21.127Z,101391.22
2023-09-16T12:28:48.982Z,101384.81
2023-09-16T12:31:25.035Z,101385.41
2023-09-16T12:33:56.838Z,101386.25
2023-09-16T12:36:31.539Z,101384.81
2023-09-16T12:39:01.718Z,101383.00
2023-09-16T12:41:30.370Z,101381.06
2023-09-16T12:43:59.339Z,101371.41
2023-09-16T12:46:29.652Z,101379.25
2023-09-16T12:48:57.685Z,101366.69
2023-09-16T12:51:25.490Z,101372.97
2023-09-16T12:53:54.993Z,101369.22
2023-09-16T12:56:24.897Z,101367.28
2023-09-16T12:58:52.457Z,101367.91
2023-09-16T13:01:21.414Z,101365.22
2023-09-16T13:03:48.985Z,101370.56
2023-09-16T13:06:16.393Z,101374.03
2023-09-16T13:08:44.767Z,101375.16
2023-09-16T13:11:15.331Z,101378.03
2023-09-16T13:13:42.496Z,101369.47
2023-09-16T13:16:12.140Z,101369.47
2023-09-16T13:18:40.713Z,101369.22
2023-09-16T13:21:08.255Z,101365.56
2023-09-16T13:23:35.692Z,101361.13
2023-09-16T13:26:12.135Z,101365.22
2023-09-16T13:28:39.556Z,101365.81
2023-09-16T13:31:07.037Z,101359.06
2023-09-16T13:33:50.899Z,101356.53
2023-09-16T13:36:18.189Z,101359.06
2023-09-16T13:38:46.506Z,101363.28
2023-09-16T13:41:13.716Z,101364.88
2023-09-16T13:43:40.689Z,101359.53
2023-09-16T13:46:07.868Z,101360.38
2023-09-16T13:48:35.498Z,101356.28
2023-09-16T13:51:05.554Z,101358.09
2023-09-16T13:53:32.658Z,101359.66
2023-09-16T13:56:00.258Z,101355.28
2023-09-16T13:58:27.848Z,101363.03
2023-09-16T14:00:55.748Z,101363.91
2023-09-16T14:03:23.074Z,101375.50
2023-09-16T14:05:50.338Z,101367.75
2023-09-16T14:08:17.446Z,101366.06
2023-09-16T14:10:44.614Z,101366.56
2023-09-16T14:13:11.845Z,101371.16
2023-09-16T14:15:40.454Z,101372.00
2023-09-16T14:18:09.460Z,101365.25
2023-09-16T14:20:37.516Z,101362.59
2023-09-16T14:23:06.721Z,101364.38
2023-09-16T14:25:35.451Z,101362.59
2023-09-16T14:28:06.453Z,101361.50
2023-09-16T14:30:33.604Z,101360.25
2023-09-16T14:33:00.849Z,101363.66
2023-09-16T14:35:35.734Z,101358.31
2023-09-16T14:38:05.275Z,101359.19
2023-09-16T14:40:35.651Z,101360.38
2023-09-16T14:43:03.897Z,101356.91
2023-09-16T14:45:31.102Z,101366.56
2023-09-16T14:47:58.553Z,101355.81
2023-09-16T14:50:26.057Z,101357.34
2023-09-16T14:52:53.184Z,101347.81
2023-09-16T14:55:20.609Z,101344.44
2023-09-16T14:57:48.830Z,101349.03
2023-09-16T15:00:15.975Z,101339.25
2023-09-16T15:02:43.794Z,101346.38
2023-09-16T15:05:13.372Z,101342.75
2023-09-16T15:07:40.755Z,101346.50
2023-09-16T15:10:08.911Z,101343.84
2023-09-16T15:12:36.265Z,101354.25
2023-09-16T15:15:03.412Z,101346.13
2023-09-16T15:17:30.481Z,101350.63
2023-09-16T15:19:58.534Z,101361.34
2023-09-16T15:22:26.523Z,101359.56
2023-09-16T15:24:53.773Z,101367.53
2023-09-16T15:27:21.580Z,101364.00
2023-09-16T15:29:48.782Z,101360.53
2023-09-16T15:32:39.013Z,101362.31
2023-09-16T15:35:03.350Z,101357.72
2023-09-16T15:37:31.845Z,101362.91
2023-09-16T15:39:58.969Z,101363.91
2023-09-16T15:42:26.234Z,101361.25
2023-09-16T15:44:56.052Z,101362.22
2023-09-16T15:47:23.439Z,101358.84
2023-09-16T15:49:50.519Z,101356.66
2023-09-16T15:52:18.396Z,101360.41
2023-09-16T15:54:45.468Z,101363.06
2023-09-16T15:57:12.540Z,101363.16
2023-09-16T15:59:39.790Z,101360.59
2023-09-16T16:02:07.519Z,101358.22
2023-09-16T16:04:34.982Z,101368.94
2023-09-16T16:07:02.074Z,101364.50
2023-09-16T16:09:29.175Z,101365.47
2023-09-16T16:11:56.294Z,101366.66
2023-09-16T16:14:23.380Z,101367.88
2023-09-16T16:16:50.722Z,101361.84
2023-09-16T16:19:18.298Z,101363.91
2023-09-16T16:21:46.592Z,101363.16
2023-09-16T16:24:13.641Z,101364.38
2023-09-16T16:26:40.626Z,101364.50
2023-09-16T16:29:08.291Z,101365.47
2023-09-16T16:31:35.364Z,101376.19
2023-09-16T16:34:02.508Z,101373.53
2023-09-16T16:36:29.601Z,101368.47
2023-09-16T16:38:57.445Z,101374.84
2023-09-16T16:41:24.882Z,101371.00
2023-09-16T16:43:52.405Z,101370.25
2023-09-16T16:46:19.986Z,101372.19
2023-09-16T16:48:47.183Z,101370.63
2023-09-16T16:51:14.976Z,101368.19
2023-09-16T16:53:42.055Z,101366.03
2023-09-16T16:56:09.231Z,101362.84
2023-09-16T16:58:37.027Z,101372.88
2023-09-16T17:01:04.420Z,101362.38
2023-09-16T17:03:31.592Z,101376.72
2023-09-16T17:05:59.109Z,101370.06
2023-09-16T17:08:26.234Z,101368.59
2023-09-16T17:10:53.467Z,101367.03
2023-09-16T17:13:20.575Z,101355.66
2023-09-16T17:15:47.799Z,101354.94
2023-09-16T17:18:14.979Z,101365.91
2023-09-16T17:20:42.169Z,101365.28
2023-09-16T17:23:09.303Z,101380.63
2023-09-16T17:25:38.563Z,101366.22
2023-09-16T17:28:08.737Z,101368.47
2023-09-16T17:30:35.991Z,101378.47
2023-09-16T17:33:04.696Z,101371.19
2023-09-16T17:35:32.176Z,101376.09
2023-09-16T17:37:59.295Z,101384.50
2023-09-16T17:40:26.346Z,101381.75
2023-09-16T17:42:53.421Z,101384.28
2023-09-16T17:45:20.440Z,101385.47
2023-09-16T17:47:47.681Z,101394.34
2023-09-16T17:50:15.196Z,101388.97
2023-09-16T17:52:42.619Z,101394.16
2023-09-16T17:55:10.166Z,101402.13
2023-09-16T17:57:37.277Z,101400.41
2023-09-16T18:00:04.738Z,101401.28
2023-09-16T18:02:40.681Z,101406.47
2023-09-16T18:05:08.187Z,101412.00
2023-09-16T18:07:36.177Z,101414.00
2023-09-16T18:10:04.808Z,101413.38
2023-09-16T18:12:31.959Z,101425.69
2023-09-16T18:14:59.171Z,101426.28
2023-09-16T18:17:26.713Z,101436.16
2023-09-16T18:19:53.735Z,101431.31
2023-09-16T18:22:20.929Z,101435.75
2023-09-16T18:24:47.986Z,101429.63
2023-09-16T18:27:15.029Z,101425.75
2023-09-16T18:29:42.065Z,101437.13
2023-09-16T18:32:09.195Z,101446.16
2023-09-16T18:34:36.378Z,101448.28
2023-09-16T18:37:04.644Z,101457.31
2023-09-16T18:39:32.047Z,101462.59
2023-09-16T18:41:59.127Z,101462.53
2023-09-16T18:44:27.546Z,101468.44
2023-09-16T18:46:56.618Z,101466.31
2023-09-16T18:49:24.371Z,101471.38
2023-09-16T18:51:51.673Z,101469.41
2023-09-16T18:54:18.739Z,101482.22
2023-09-16T18:56:45.859Z,101485.84
2023-09-16T18:59:15.945Z,101483.28
2023-09-16T19:01:43.698Z,101478.31
2023-09-16T19:04:10.885Z,101477.56
2023-09-16T19:06:37.903Z,101484.69
2023-09-16T19:09:05.644Z,101491.38
2023-09-16T19:11:32.776Z,101489.78
2023-09-16T19:13:59.879Z,101499.53
2023-09-16T19:16:26.985Z,101497.84
2023-09-16T19:18:54.112Z,101494.13
2023-09-16T19:21:21.340Z,101502.41
2023-09-16T19:23:49.485Z,101511.31
2023-09-16T19:26:16.783Z,101508.50
2023-09-16T19:28:43.839Z,101504.22
2023-09-16T19:31:10.909Z,101500.00
2023-09-16T19:33:38.029Z,101503.16
2023-09-16T19:36:05.400Z,101504.16
2023-09-16T19:38:42.104Z,101502.72
2023-09-16T19:41:10.044Z,101493.91
2023-09-16T19:43:37.937Z,101499.00
2023-09-16T19:46:09.717Z,101496.56
2023-09-16T19:48:37.588Z,101484.28
2023-09-16T19:51:05.195Z,101493.19
2023-09-16T19:53:33.690Z,101481.09
2023-09-16T19:56:01.204Z,101476.13
2023-09-16T19:58:28.767Z,101475.84
2023-09-16T20:01:01.503Z,101470.75
2023-09-16T20:03:30.406Z,101467.97
2023-09-16T20:06:04.116Z,101476.34
2023-09-16T20:08:31.154Z,101469.34
2023-09-16T20:10:58.411Z,101462.72
2023-09-16T20:13:25.832Z,101464.56
2023-09-16T20:15:52.938Z,101459.75
2023-09-16T20:18:20.009Z,101455.81
2023-09-16T20:20:47.450Z,101459.72
2023-09-16T20:23:14.457Z,101465.47
2023-09-16T20:25:45.251Z,101471.75
2023-09-16T20:28:12.752Z,101477.38
2023-09-16T20:30:39.802Z,101481.94
2023-09-16T20:33:07.189Z,101483.09
2023-09-16T20:35:34.274Z,101482.88
2023-09-16T20:38:01.992Z,101475.59
2023-09-16T20:40:29.285Z,101479.94
2023-09-16T20:42:56.618Z,101481.63
2023-09-16T20:45:24.076Z,101483.09
2023-09-16T20:47:51.247Z,101477.63
2023-09-16T20:50:19.964Z,101473.91
2023-09-16T20:52:46.947Z,101471.16
2023-09-16T20:55:14.063Z,101479.19
2023-09-16T20:57:41.142Z,101476.56
2023-09-16T21:00:10.626Z,101469.47
2023-09-16T21:02:37.891Z,101462.56
2023-09-16T21:05:05.489Z,101465.31
2023-09-16T21:07:35.800Z,101462.97
2023-09-16T21:10:05.087Z,101463.94
2023-09-16T21:12:32.154Z,101459.69
2023-09-16T21:14:59.257Z,101455.34
2023-09-16T21:17:26.386Z,101457.13
2023-09-16T21:19:53.486Z,101458.19
2023-09-16T21:22:20.528Z,101453.31
2023-09-16T21:24:49.540Z,101456.81
2023-09-16T21:27:16.804Z,101458.06
2023-09-16T21:29:43.790Z,101459.88
2023-09-16T21:32:12.504Z,101462.50
2023-09-16T21:34:39.682Z,101458.25
2023-09-16T21:37:06.841Z,101462.72
2023-09-16T21:39:37.325Z,101459.22
2023-09-16T21:42:05.737Z,101464.78
2023-09-16T21:44:33.623Z,101464.38
2023-09-16T21:47:00.923Z,101464.88
2023-09-16T21:49:28.105Z,101465.44
2023-09-16T21:51:55.266Z,101468.09
2023-09-16T21:54:22.634Z,101463.81
2023-09-16T21:56:49.639Z,101465.06
2023-09-16T21:59:16.687Z,101466.59
2023-09-16T22:01:43.997Z,101462.66
2023-09-16T22:04:12.125Z,101467.38
2023-09-16T22:06:39.284Z,101464.19
2023-09-16T22:09:06.344Z,101468.16
2023-09-16T22:11:33.435Z,101465.31
2023-09-16T22:14:00.514Z,101469.84
2023-09-16T22:16:30.447Z,101464.00
2023-09-16T22:18:57.605Z,101467.50
2023-09-16T22:21:24.682Z,101459.84
2023-09-16T22:23:51.928Z,101459.00
2023-09-16T22:26:19.274Z,101454.34
2023-09-16T22:28:46.413Z,101455.22
2023-09-16T22:31:16.957Z,101461.63
2023-09-16T22:33:44.480Z,101463.31
2023-09-16T22:36:11.597Z,101456.03
2023-09-16T22:38:38.681Z,101460.84
2023-09-16T22:41:05.990Z,101464.06
2023-09-16T22:43:33.067Z,101448.66
2023-09-16T22:46:00.059Z,101452.06
2023-09-16T22:48:27.083Z,101446.59
2023-09-16T22:50:54.231Z,101457.84
2023-09-16T22:53:21.294Z,101460.59
2023-09-16T22:55:48.359Z,101450.97
2023-09-16T22:58:15.447Z,101452.66
2023-09-16T23:00:42.617Z,101456.97
2023-09-16T23:03:09.861Z,101442.25
2023-09-16T23:05:37.043Z,101446.75
2023-09-16T23:08:04.576Z,101451.22
2023-09-16T23:10:31.883Z,101444.22
2023-09-16T23:12:58.963Z,101448.66
2023-09-16T23:15:26.134Z,101448.34
2023-09-16T23:17:54.408Z,101454.19
2023-09-16T23:20:21.768Z,101449.69
2023-09-16T23:22:48.779Z,101452.44
2023-09-16T23:25:16.514Z,101453.47
2023-09-16T23:27:43.657Z,101445.88
2023-09-16T23:30:11.215Z,101448.59
2023-09-16T23:32:38.243Z,101433.31
2023-09-16T23:35:05.565Z,101440.78
2023-09-16T23:37:32.986Z,101438.50
2023-09-16T23:40:00.387Z,101435.78
2023-09-16T23:42:27.743Z,101438.84
2023-09-16T23:44:55.082Z,101441.88
2023-09-16T23:47:22.617Z,101449.03
2023-09-16T23:49:49.718Z,101444.53
2023-09-16T23:52:16.790Z,101454.31
2023-09-16T23:54:43.843Z,101451.19
2023-09-16T23:57:10.826Z,101449.66
2023-09-16T23:59:37.783Z,101453.16
